Time;durP1;ratioP1;P1;durP2;ratioP2;P2;SDS_P1;SDS_P2;PMS_P1;PMS_P2;Temp;Humidity;BMP_temperature;BMP_pressure;BME280_temperature;BME280_humidity;BME280_pressure;Samples;Min_cycle;Max_cycle;Signal;HPM_P1;HPM_P2
2024/02/12 00:00:36;;;;;;;5.60;3.07;;;21.80;78.50;;;;;;4970049;28;20917;-67
2024/02/12 00:03:04;;;;;;;8.77;4.53;;;21.80;78.80;;;;;;4970469;28;20475;-68
2024/02/12 00:05:46;;;;;;;5.17;3.10;;;21.70;78.40;;;;;;4969386;28;20550;-66
2024/02/12 00:08:16;;;;;;;4.50;2.93;;;21.60;78.10;;;;;;4971186;28;21027;-67
2024/02/12 00:10:43;;;;;;;5.93;3.23;;;21.70;78.20;;;;;;4967953;28;20452;-66
2024/02/12 00:13:12;;;;;;;5.33;2.53;;;21.70;79.60;;;;;;4970169;28;20464;-66
2024/02/12 00:15:41;;;;;;;3.53;2.80;;;21.70;79.50;;;;;;4969218;28;20920;-67
2024/02/12 00:18:08;;;;;;;8.03;4.30;;;21.70;79.30;;;;;;4962228;28;20496;-66
2024/02/12 00:20:36;;;;;;;3.80;3.10;;;22.00;80.10;;;;;;4970795;28;20708;-66
2024/02/12 00:23:03;;;;;;;5.83;3.60;;;21.50;79.00;;;;;;4967587;28;21089;-67
2024/02/12 00:25:30;;;;;;;4.80;2.97;;;21.70;79.40;;;;;;4968000;28;20464;-66
2024/02/12 00:28:01;;;;;;;3.90;2.77;;;22.10;79.50;;;;;;4971438;28;20468;-66
2024/02/12 00:30:32;;;;;;;5.00;2.30;;;21.70;78.70;;;;;;4966496;28;20464;-66
2024/02/12 00:33:03;;;;;;;3.90;2.83;;;21.80;78.40;;;;;;4970553;28;20463;-67
2024/02/12 00:35:32;;;;;;;4.68;3.55;;;21.70;78.20;;;;;;4971268;28;20464;-68
2024/02/12 00:38:03;;;;;;;4.00;2.60;;;21.70;78.00;;;;;;4971090;28;20227;-67
2024/02/12 00:40:33;;;;;;;5.50;3.00;;;21.60;78.10;;;;;;4967703;28;20471;-67
2024/02/12 00:43:02;;;;;;;3.28;2.40;;;21.60;77.90;;;;;;4963413;28;20468;-66
2024/02/12 00:45:30;;;;;;;3.83;3.00;;;21.60;77.80;;;;;;4972252;28;20549;-66
2024/02/12 00:48:01;;;;;;;4.10;2.97;;;21.60;78.20;;;;;;4965395;28;20471;-67
2024/02/12 00:50:29;;;;;;;3.80;2.73;;;21.60;78.30;;;;;;4971508;28;20478;-66
2024/02/12 00:52:58;;;;;;;5.40;2.87;;;21.70;78.70;;;;;;4969713;28;20485;-66
2024/02/12 00:55:33;;;;;;;4.00;2.83;;;21.50;79.40;;;;;;4973778;28;20550;-66
2024/02/12 00:58:03;;;;;;;4.85;2.72;;;21.70;79.00;;;;;;4970420;28;21212;-67
2024/02/12 01:00:30;;;;;;;4.37;2.53;;;21.50;79.00;;;;;;4965135;28;20266;-67
2024/02/12 01:02:59;;;;;;;5.87;3.40;;;21.40;78.30;;;;;;4969422;28;20471;-66
2024/02/12 01:05:30;;;;;;;4.65;3.35;;;21.50;77.70;;;;;;4965648;28;21212;-66
2024/02/12 01:07:57;;;;;;;4.25;2.85;;;21.80;78.20;;;;;;4969506;28;20776;-66
2024/02/12 01:10:26;;;;;;;6.60;2.47;;;21.70;78.10;;;;;;4966331;28;20205;-66
2024/02/12 01:12:56;;;;;;;4.30;2.50;;;21.50;77.80;;;;;;4969576;28;20476;-66
2024/02/12 01:15:23;;;;;;;3.37;2.60;;;22.00;78.00;;;;;;4969237;28;20468;-66
2024/02/12 01:17:51;;;;;;;3.60;2.50;;;21.50;77.60;;;;;;4949946;28;21157;-66
2024/02/12 01:20:22;;;;;;;4.50;2.40;;;21.40;77.70;;;;;;4968083;28;20471;-66
2024/02/12 01:22:52;;;;;;;4.97;2.87;;;21.50;77.80;;;;;;4970884;28;20469;-68
2024/02/12 01:25:20;;;;;;;4.70;2.50;;;21.50;77.50;;;;;;4971108;28;20460;-66
2024/02/12 01:27:47;;;;;;;2.80;2.27;;;21.40;77.00;;;;;;4965612;28;20551;-67
2024/02/12 01:30:15;;;;;;;3.67;2.73;;;21.50;77.10;;;;;;4968065;28;20965;-67
2024/02/12 01:32:44;;;;;;;2.97;2.53;;;21.50;76.80;;;;;;4963645;28;20968;-67
2024/02/12 01:35:15;;;;;;;4.63;2.97;;;21.50;76.80;;;;;;4965123;28;20548;-67
2024/02/12 01:37:42;;;;;;;5.57;2.93;;;21.50;76.70;;;;;;4959783;28;20788;-67
2024/02/12 01:40:11;;;;;;;4.40;2.87;;;21.50;76.70;;;;;;4964562;28;20452;-65
2024/02/12 01:42:38;;;;;;;3.07;2.43;;;21.50;76.40;;;;;;4965029;28;20466;-66
2024/02/12 01:45:11;;;;;;;4.93;3.10;;;21.50;76.50;;;;;;4960640;28;21324;-65
2024/02/12 01:47:47;;;;;;;2.30;2.10;;;21.50;76.30;;;;;;4959949;28;20232;-65
2024/02/12 01:50:15;;;;;;;2.92;2.33;;;21.50;76.20;;;;;;4962560;28;21116;-65
2024/02/12 01:52:48;;;;;;;4.07;2.67;;;21.30;76.00;;;;;;4966953;28;20605;-65
2024/02/12 01:55:26;;;;;;;3.67;2.37;;;21.90;76.70;;;;;;4962399;28;20657;-65
2024/02/12 01:57:53;;;;;;;3.20;2.20;;;21.40;76.10;;;;;;4960541;28;20622;-65
2024/02/12 02:00:25;;;;;;;3.13;2.20;;;21.50;76.30;;;;;;4964239;28;20464;-65
2024/02/12 02:02:56;;;;;;;3.78;2.55;;;21.40;76.10;;;;;;4966461;28;20707;-66
2024/02/12 02:05:25;;;;;;;2.87;2.37;;;21.40;76.00;;;;;;4962669;28;20812;-66
2024/02/12 02:08:00;;;;;;;4.45;3.17;;;21.50;76.10;;;;;;4965177;28;20472;-66
2024/02/12 02:10:27;;;;;;;4.18;2.65;;;21.40;76.70;;;;;;4957446;28;20216;-66
2024/02/12 02:12:55;;;;;;;3.85;2.60;;;21.40;75.90;;;;;;4955069;28;20215;-66
2024/02/12 02:15:24;;;;;;;3.20;2.65;;;21.40;75.80;;;;;;4961942;28;20844;-66
2024/02/12 02:17:53;;;;;;;4.28;2.35;;;21.40;75.70;;;;;;4964319;28;20221;-66
2024/02/12 02:20:23;;;;;;;6.55;2.40;;;21.20;75.50;;;;;;4962324;28;20704;-67
2024/02/12 02:22:53;;;;;;;3.10;2.33;;;21.40;75.70;;;;;;4962938;28;20901;-66
2024/02/12 02:25:23;;;;;;;2.88;2.55;;;21.40;75.70;;;;;;4965341;28;21180;-66
2024/02/12 02:27:50;;;;;;;2.95;2.45;;;21.40;75.60;;;;;;4960070;28;20217;-66
2024/02/12 02:30:19;;;;;;;4.93;2.30;;;21.40;75.60;;;;;;4950157;28;20651;-67
2024/02/12 02:32:46;;;;;;;4.47;2.85;;;21.30;75.40;;;;;;4961362;28;20292;-66
2024/02/12 02:35:18;;;;;;;3.35;2.45;;;21.30;75.40;;;;;;4963059;28;20217;-66
2024/02/12 02:37:47;;;;;;;2.88;1.92;;;21.30;75.40;;;;;;4963131;28;20213;-66
2024/02/12 02:40:17;;;;;;;4.55;2.50;;;21.30;75.40;;;;;;4962728;28;20245;-66
2024/02/12 02:42:47;;;;;;;3.72;2.22;;;21.30;75.50;;;;;;4965208;28;20197;-65
2024/02/12 02:45:16;;;;;;;2.20;1.63;;;21.60;76.00;;;;;;4965132;28;20205;-66
2024/02/12 02:47:43;;;;;;;7.50;3.00;;;21.30;75.70;;;;;;4963298;28;20213;-65
2024/02/12 02:50:18;;;;;;;2.60;2.33;;;21.20;75.50;;;;;;4960904;28;20848;-66
2024/02/12 02:52:49;;;;;;;2.30;1.50;;;21.30;75.60;;;;;;4965853;28;20200;-66
2024/02/12 02:55:21;;;;;;;4.57;2.10;;;21.30;75.70;;;;;;4962164;28;20193;-66
2024/02/12 02:57:49;;;;;;;3.90;2.33;;;21.30;75.60;;;;;;4960589;28;20229;-65
2024/02/12 03:00:20;;;;;;;4.22;2.45;;;21.20;75.70;;;;;;4961475;28;20201;-66
2024/02/12 03:02:49;;;;;;;4.57;2.47;;;21.20;75.60;;;;;;4959072;28;20234;-65
2024/02/12 03:05:18;;;;;;;3.25;2.10;;;21.20;75.50;;;;;;4960515;28;20202;-66
2024/02/12 03:07:49;;;;;;;2.78;1.95;;;21.20;75.40;;;;;;4961671;28;20647;-66
2024/02/12 03:10:15;;;;;;;4.22;2.33;;;21.20;75.40;;;;;;4961797;28;20391;-66
2024/02/12 03:12:46;;;;;;;2.90;1.97;;;20.90;75.40;;;;;;4961463;28;20234;-65
2024/02/12 03:15:15;;;;;;;5.47;2.40;;;21.70;76.20;;;;;;4962267;28;21370;-66
2024/02/12 03:17:43;;;;;;;3.30;2.47;;;21.10;75.70;;;;;;4959570;28;20220;-66
2024/02/12 03:20:13;;;;;;;4.05;2.08;;;21.10;76.20;;;;;;4960602;28;20320;-67
2024/02/12 03:22:43;;;;;;;2.42;2.00;;;21.10;77.70;;;;;;4960660;28;20200;-65
2024/02/12 03:25:15;;;;;;;2.78;2.22;;;21.10;78.00;;;;;;4960309;28;20205;-65
2024/02/12 03:27:44;;;;;;;2.67;1.52;;;21.10;77.90;;;;;;4959937;28;21142;-66
2024/02/12 03:30:18;;;;;;;4.05;2.30;;;21.10;77.50;;;;;;4955999;28;20811;-65
2024/02/12 03:32:44;;;;;;;4.90;3.05;;;21.10;78.20;;;;;;4956115;28;20203;-66
2024/02/12 03:35:11;;;;;;;2.38;1.88;;;21.60;78.30;;;;;;4951699;28;20575;-66
2024/02/12 03:37:38;;;;;;;2.67;2.20;;;21.00;76.60;;;;;;4958756;28;20936;-66
2024/02/12 03:40:16;;;;;;;4.03;2.45;;;20.90;76.70;;;;;;4957313;28;20208;-66
2024/02/12 03:42:43;;;;;;;3.65;2.40;;;21.00;77.10;;;;;;4959341;28;20201;-66
2024/02/12 03:45:11;;;;;;;3.67;2.40;;;21.00;78.20;;;;;;4959037;28;20757;-66
2024/02/12 03:47:39;;;;;;;3.55;2.40;;;21.10;77.90;;;;;;4956810;28;20205;-65
2024/02/12 04:01:27;;;;;;;4.00;2.50;;;20.90;76.70;;;;;;4953228;28;20230;-67
2024/02/12 04:03:55;;;;;;;2.80;2.03;;;20.90;76.70;;;;;;4954911;28;20194;-66
2024/02/12 04:06:22;;;;;;;2.60;2.40;;;21.50;77.50;;;;;;4955011;28;20196;-65
2024/02/12 04:08:52;;;;;;;2.30;1.52;;;20.90;76.40;;;;;;4950289;28;20201;-66
2024/02/12 04:11:22;;;;;;;3.38;1.88;;;20.90;76.00;;;;;;4951568;28;20260;-66
2024/02/12 04:13:52;;;;;;;3.00;2.03;;;21.30;76.70;;;;;;4954070;28;20198;-66
2024/02/12 04:16:19;;;;;;;3.17;2.00;;;20.70;77.50;;;;;;4955992;28;20199;-66
2024/02/12 04:18:48;;;;;;;3.30;1.75;;;21.30;77.30;;;;;;4951355;28;20225;-66
2024/02/12 04:21:20;;;;;;;3.38;2.83;;;20.70;77.20;;;;;;4955244;28;20648;-66
2024/02/12 04:23:50;;;;;;;3.83;2.05;;;21.00;76.80;;;;;;4954208;28;20562;-67
2024/02/12 04:26:17;;;;;;;2.30;2.00;;;20.80;76.90;;;;;;4958520;28;20204;-66
2024/02/12 04:28:45;;;;;;;4.07;2.13;;;20.70;76.30;;;;;;4952891;28;20318;-66
2024/02/12 04:31:14;;;;;;;3.50;2.17;;;20.60;76.90;;;;;;4947248;28;20657;-66
2024/02/12 04:33:44;;;;;;;2.13;1.55;;;20.80;76.60;;;;;;4956514;28;20198;-65
2024/02/12 04:36:14;;;;;;;2.90;2.30;;;21.10;76.40;;;;;;4955441;28;20196;-65
2024/02/12 04:38:45;;;;;;;2.33;1.90;;;21.10;75.90;;;;;;4955511;28;20221;-66
2024/02/12 04:41:13;;;;;;;1.90;1.60;;;20.80;75.70;;;;;;4955042;28;20205;-66
2024/02/12 04:43:42;;;;;;;2.42;2.22;;;20.80;75.40;;;;;;4956654;28;20205;-66
2024/02/12 04:46:10;;;;;;;3.35;1.90;;;20.80;75.40;;;;;;4957313;28;20200;-65
2024/02/12 04:48:40;;;;;;;1.95;1.75;;;20.70;75.30;;;;;;4952776;28;20676;-65
2024/02/12 04:51:08;;;;;;;4.30;1.65;;;20.80;75.50;;;;;;4955507;28;20473;-66
2024/02/12 04:53:38;;;;;;;2.70;2.08;;;20.80;75.50;;;;;;4960358;28;20553;-66
2024/02/12 04:56:11;;;;;;;2.75;2.35;;;20.70;75.30;;;;;;4955353;28;20504;-66
2024/02/12 04:58:38;;;;;;;1.65;1.55;;;20.70;75.10;;;;;;4956046;28;20924;-66
2024/02/12 05:01:08;;;;;;;4.60;2.73;;;20.70;75.20;;;;;;4955346;28;20796;-65
2024/02/12 05:03:36;;;;;;;2.70;1.65;;;20.70;75.10;;;;;;4958111;28;20461;-66
2024/02/12 05:06:05;;;;;;;2.53;1.80;;;20.70;75.30;;;;;;4959881;28;22014;-66
2024/02/12 05:08:31;;;;;;;2.80;2.10;;;20.70;75.10;;;;;;4950562;28;20211;-66
2024/02/12 05:11:00;;;;;;;3.42;2.03;;;20.70;75.30;;;;;;4951686;28;20205;-66
2024/02/12 05:13:30;;;;;;;2.90;2.25;;;20.40;75.00;;;;;;4956740;28;20208;-66
2024/02/12 05:16:04;;;;;;;1.92;1.55;;;20.60;75.40;;;;;;4958738;28;20213;-66
2024/02/12 05:24:06;;;;;;;1.75;1.52;;;20.70;75.40;;;;;;4958230;28;20283;-66
2024/02/12 05:26:36;;;;;;;4.00;2.15;;;20.60;75.10;;;;;;4955920;28;20200;-65
2024/02/12 05:29:07;;;;;;;3.58;1.98;;;20.60;75.20;;;;;;4957183;28;20664;-66
2024/02/12 05:31:41;;;;;;;1.70;1.60;;;20.60;75.10;;;;;;4962145;28;20550;-66
2024/02/12 05:34:08;;;;;;;2.92;2.33;;;20.50;75.20;;;;;;4959526;28;20198;-66
2024/02/12 05:36:36;;;;;;;1.90;1.27;;;20.60;75.20;;;;;;4960368;28;20198;-65
2024/02/12 05:39:04;;;;;;;1.50;1.30;;;20.60;75.20;;;;;;4950050;28;20217;-66
2024/02/12 05:41:31;;;;;;;2.53;2.10;;;20.60;75.20;;;;;;4961319;28;20201;-66
2024/02/12 05:43:58;;;;;;;2.20;2.00;;;20.60;75.20;;;;;;4964617;28;20201;-67
2024/02/12 05:46:26;;;;;;;1.92;1.75;;;20.60;75.00;;;;;;4960205;28;20197;-67
2024/02/12 05:48:52;;;;;;;1.70;1.50;;;20.80;75.40;;;;;;4962732;28;20684;-66
2024/02/12 05:51:21;;;;;;;2.10;1.90;;;20.90;75.40;;;;;;4963808;28;20691;-66
2024/02/12 05:53:48;;;;;;;1.63;1.48;;;20.50;75.20;;;;;;4960549;28;20653;-66
2024/02/12 05:56:15;;;;;;;2.50;1.45;;;20.50;75.30;;;;;;4961647;28;20213;-65
2024/02/12 05:58:45;;;;;;;2.28;1.67;;;20.20;74.90;;;;;;4963321;28;20248;-66
2024/02/12 06:01:12;;;;;;;1.85;1.52;;;20.40;75.20;;;;;;4960723;28;20201;-65
2024/02/12 06:03:42;;;;;;;2.20;1.60;;;20.50;75.10;;;;;;4959152;28;20316;-66
2024/02/12 06:06:09;;;;;;;3.05;1.65;;;20.50;75.20;;;;;;4964173;28;20648;-67
2024/02/12 06:08:38;;;;;;;1.92;1.58;;;20.50;75.20;;;;;;4962707;28;20967;-65
2024/02/12 06:11:05;;;;;;;2.13;1.55;;;20.40;75.20;;;;;;4961499;28;20220;-65
2024/02/12 06:13:41;;;;;;;2.38;2.17;;;20.50;75.10;;;;;;4960678;28;20201;-67
2024/02/12 06:16:11;;;;;;;2.28;1.90;;;20.50;75.30;;;;;;4962424;28;20192;-66
2024/02/12 06:18:39;;;;;;;2.45;1.70;;;20.50;75.20;;;;;;4962972;28;20629;-65
2024/02/12 06:21:06;;;;;;;1.83;1.30;;;20.30;74.90;;;;;;4965248;28;20208;-65
2024/02/12 06:23:37;;;;;;;2.95;2.28;;;20.50;75.00;;;;;;4961161;28;20207;-65
2024/02/12 06:26:05;;;;;;;1.70;1.45;;;20.90;75.70;;;;;;4960550;28;20625;-65
2024/02/12 06:28:34;;;;;;;2.20;1.60;;;20.40;75.10;;;;;;4955271;28;20636;-67
2024/02/12 06:31:07;;;;;;;1.83;1.65;;;20.40;75.20;;;;;;4965053;28;20753;-66
2024/02/12 06:33:36;;;;;;;2.85;1.73;;;20.40;75.10;;;;;;4961439;28;20252;-66
2024/02/12 06:36:07;;;;;;;1.50;1.40;;;20.40;75.10;;;;;;4962705;28;20206;-66
2024/02/12 06:38:37;;;;;;;1.40;1.20;;;20.40;75.20;;;;;;4964555;28;20221;-66
2024/02/12 06:41:07;;;;;;;2.55;1.65;;;20.40;75.30;;;;;;4959144;28;20758;-65
2024/02/12 06:43:37;;;;;;;2.53;1.70;;;20.40;75.40;;;;;;4964841;28;20260;-66
2024/02/12 06:46:07;;;;;;;1.60;1.40;;;20.40;75.30;;;;;;4959845;28;20288;-65
2024/02/12 06:48:35;;;;;;;2.30;1.45;;;20.40;75.30;;;;;;4959083;28;21956;-65
2024/02/12 06:51:08;;;;;;;2.88;1.95;;;20.40;75.30;;;;;;4960488;28;20327;-65
2024/02/12 06:53:38;;;;;;;2.45;1.92;;;20.50;75.30;;;;;;4963777;28;20721;-65
2024/02/12 06:56:05;;;;;;;1.75;1.63;;;20.40;75.10;;;;;;4946503;28;20209;-66
2024/02/12 06:58:36;;;;;;;4.05;2.10;;;20.40;75.20;;;;;;4946760;28;20355;-67
2024/02/12 07:01:05;;;;;;;1.70;1.30;;;20.40;75.20;;;;;;4956865;28;29058;-68
2024/02/12 07:03:34;;;;;;;3.03;1.40;;;20.40;75.20;;;;;;4959290;28;21915;-67
2024/02/12 07:06:04;;;;;;;1.77;1.60;;;20.40;75.00;;;;;;4961854;28;20200;-67
2024/02/12 07:08:34;;;;;;;2.20;2.00;;;20.40;75.10;;;;;;4951961;28;20565;-66
2024/02/12 07:11:02;;;;;;;2.75;1.40;;;20.10;74.80;;;;;;4958437;28;20251;-67
2024/02/12 07:13:35;;;;;;;1.75;1.30;;;20.20;74.90;;;;;;4952866;28;20228;-67
2024/02/12 07:16:08;;;;;;;2.38;1.58;;;20.30;75.10;;;;;;4961739;28;20273;-67
2024/02/12 07:18:36;;;;;;;2.28;1.63;;;20.30;74.80;;;;;;4955742;28;20495;-68
2024/02/12 07:21:03;;;;;;;1.50;1.40;;;20.50;75.10;;;;;;4952437;28;20197;-68
2024/02/12 07:23:40;;;;;;;2.17;1.30;;;20.20;74.90;;;;;;4961402;28;20609;-67
2024/02/12 07:26:15;;;;;;;2.88;1.65;;;20.30;75.10;;;;;;4958877;28;20211;-67
2024/02/12 07:28:44;;;;;;;1.70;1.42;;;20.10;74.70;;;;;;4961779;28;20815;-68
2024/02/12 07:31:13;;;;;;;2.25;1.58;;;20.10;75.30;;;;;;4959979;28;20316;-67
2024/02/12 07:33:45;;;;;;;1.70;1.40;;;20.20;75.40;;;;;;4961759;28;20216;-67
2024/02/12 07:36:13;;;;;;;1.90;1.58;;;20.30;75.50;;;;;;4954853;28;20434;-67
2024/02/12 07:38:46;;;;;;;3.35;2.10;;;20.30;75.60;;;;;;4961093;28;20363;-67
2024/02/12 07:41:14;;;;;;;3.08;2.78;;;20.30;75.40;;;;;;4956577;28;20198;-67
2024/02/12 07:43:44;;;;;;;1.70;1.45;;;20.30;75.40;;;;;;4962951;28;20577;-68
2024/02/12 07:46:14;;;;;;;1.77;1.50;;;20.40;75.70;;;;;;4953593;28;20197;-68
2024/02/12 07:48:47;;;;;;;1.75;1.60;;;20.30;75.40;;;;;;4959378;28;20719;-67
2024/02/12 07:51:15;;;;;;;2.47;1.80;;;20.40;75.60;;;;;;4964465;28;20198;-67
2024/02/12 07:53:41;;;;;;;2.28;1.40;;;20.20;75.50;;;;;;4968072;28;20506;-67
2024/02/12 07:56:09;;;;;;;1.60;1.50;;;20.40;75.70;;;;;;4963505;28;20213;-68
2024/02/12 07:58:37;;;;;;;2.35;1.90;;;20.30;75.60;;;;;;4970240;28;20198;-67
2024/02/12 08:01:10;;;;;;;2.72;1.80;;;20.40;75.70;;;;;;4934489;28;20208;-67
2024/02/12 08:03:41;;;;;;;2.30;1.38;;;20.50;75.60;;;;;;4963610;28;20208;-67
2024/02/12 08:06:09;;;;;;;2.63;1.65;;;20.40;75.70;;;;;;4965725;28;20196;-67
2024/02/12 08:08:36;;;;;;;4.43;1.35;;;20.50;75.70;;;;;;4970344;28;20201;-67
2024/02/12 08:11:03;;;;;;;1.80;1.50;;;20.50;75.90;;;;;;4962612;28;20779;-68
2024/02/12 08:13:36;;;;;;;1.60;1.50;;;20.50;75.90;;;;;;4967342;28;20285;-68
2024/02/12 08:16:10;;;;;;;2.10;1.70;;;20.50;76.10;;;;;;4967256;28;20320;-67
2024/02/12 08:18:37;;;;;;;2.95;1.42;;;20.60;76.30;;;;;;4963293;28;20201;-67
2024/02/12 08:21:03;;;;;;;2.15;1.40;;;20.50;77.30;;;;;;4965478;28;20248;-68
2024/02/12 08:23:32;;;;;;;2.30;1.90;;;20.60;77.60;;;;;;4967820;28;20212;-67
2024/02/12 08:26:05;;;;;;;2.65;2.03;;;20.70;77.60;;;;;;4967738;28;20201;-67
2024/02/12 08:28:31;;;;;;;2.65;1.20;;;20.60;77.20;;;;;;4970670;28;20225;-67
2024/02/12 08:31:02;;;;;;;1.38;1.23;;;20.60;77.50;;;;;;4963730;28;20514;-67
2024/02/12 08:33:37;;;;;;;1.80;1.50;;;20.60;78.40;;;;;;4968631;28;20550;-67
2024/02/12 08:36:07;;;;;;;1.38;1.27;;;20.60;79.70;;;;;;4964981;28;20621;-67
2024/02/12 08:38:34;;;;;;;2.20;1.83;;;20.60;77.60;;;;;;4965230;28;20205;-67
2024/02/12 08:41:01;;;;;;;1.20;1.10;;;20.70;77.90;;;;;;4963983;28;20226;-67
2024/02/12 08:43:27;;;;;;;1.40;1.20;;;20.70;78.40;;;;;;4969787;28;20217;-67
2024/02/12 08:46:10;;;;;;;1.73;1.35;;;20.70;78.80;;;;;;4956718;28;20713;-67
2024/02/12 08:48:44;;;;;;;1.70;1.30;;;20.70;78.40;;;;;;4962048;28;20591;-67
2024/02/12 08:51:11;;;;;;;2.35;1.73;;;20.80;78.40;;;;;;4968191;28;20652;-67
2024/02/12 08:53:43;;;;;;;1.92;1.30;;;21.00;78.50;;;;;;4964989;28;20306;-67
2024/02/12 08:56:11;;;;;;;1.60;1.45;;;20.60;76.50;;;;;;4949917;28;20798;-67
2024/02/12 08:58:44;;;;;;;1.73;1.63;;;20.90;77.10;;;;;;4964987;28;20647;-68
2024/02/12 09:01:14;;;;;;;2.55;1.65;;;20.80;77.30;;;;;;4955780;28;20661;-66
2024/02/12 09:03:43;;;;;;;2.13;1.45;;;20.80;77.90;;;;;;4964718;28;20200;-67
2024/02/12 09:06:12;;;;;;;2.85;1.63;;;20.80;77.80;;;;;;4969504;28;20205;-66
2024/02/12 09:08:39;;;;;;;2.45;1.83;;;20.80;77.90;;;;;;4955579;28;20208;-66
2024/02/12 09:11:07;;;;;;;1.50;1.23;;;20.80;78.20;;;;;;4956436;28;20197;-67
2024/02/12 09:13:35;;;;;;;3.08;1.63;;;20.70;77.40;;;;;;4953581;28;20552;-67
2024/02/12 09:16:05;;;;;;;1.67;1.23;;;20.90;77.70;;;;;;4968532;28;20291;-67
2024/02/12 09:18:31;;;;;;;2.20;1.70;;;20.80;78.10;;;;;;4962640;28;21239;-66
2024/02/12 09:21:00;;;;;;;2.38;1.77;;;20.80;77.20;;;;;;4958806;28;20507;-66
2024/02/12 09:23:27;;;;;;;1.83;1.55;;;21.00;77.20;;;;;;4971128;28;20288;-67
2024/02/12 09:25:55;;;;;;;1.40;1.10;;;20.80;76.60;;;;;;4971711;28;20284;-67
2024/02/12 09:28:23;;;;;;;2.20;1.50;;;20.70;76.30;;;;;;4973404;28;20260;-67
2024/02/12 09:30:52;;;;;;;1.50;1.40;;;21.00;76.40;;;;;;4967482;28;20197;-67
2024/02/12 09:33:23;;;;;;;2.30;1.60;;;20.70;76.10;;;;;;4963679;28;20206;-68
2024/02/12 09:35:50;;;;;;;2.00;1.40;;;20.80;76.50;;;;;;4968750;28;20208;-68
2024/02/12 09:38:22;;;;;;;2.00;1.90;;;20.80;76.00;;;;;;4954990;28;20314;-67
2024/02/12 09:40:51;;;;;;;2.35;1.58;;;20.80;75.90;;;;;;4957839;28;20217;-67
2024/02/12 09:43:22;;;;;;;2.10;1.90;;;20.90;75.90;;;;;;4963482;28;20224;-67
2024/02/12 09:45:54;;;;;;;1.52;1.30;;;21.00;76.10;;;;;;4969512;28;20197;-65
2024/02/12 09:48:25;;;;;;;2.15;1.67;;;20.90;75.80;;;;;;4960485;28;20344;-71
2024/02/12 09:50:53;;;;;;;2.65;1.60;;;20.90;75.90;;;;;;4957643;28;20412;-67
2024/02/12 09:53:29;;;;;;;1.90;1.60;;;20.90;76.00;;;;;;4961377;28;20209;-66
2024/02/12 09:56:00;;;;;;;2.60;1.65;;;21.00;76.10;;;;;;4965935;28;20880;-66
2024/02/12 09:58:27;;;;;;;1.80;1.42;;;20.90;75.90;;;;;;4958798;28;20663;-69
2024/02/12 10:00:56;;;;;;;3.05;1.92;;;21.40;76.80;;;;;;4954604;28;20634;-69
2024/02/12 10:03:29;;;;;;;2.70;1.40;;;20.90;76.50;;;;;;4962776;28;20197;-70
2024/02/12 10:05:58;;;;;;;2.58;1.80;;;20.90;76.70;;;;;;4959346;28;20284;-67
2024/02/12 10:08:27;;;;;;;2.85;1.63;;;20.90;77.10;;;;;;4964494;28;21563;-71
2024/02/12 10:10:54;;;;;;;1.90;1.70;;;21.00;77.10;;;;;;4959310;28;20197;-71
2024/02/12 10:13:21;;;;;;;6.60;1.50;;;21.00;77.00;;;;;;4961096;28;20206;-66
2024/02/12 10:15:53;;;;;;;4.80;1.60;;;21.00;77.10;;;;;;4960073;28;20466;-69
2024/02/12 10:18:22;;;;;;;4.28;1.52;;;21.00;77.10;;;;;;4957744;28;20197;-68
2024/02/12 10:20:51;;;;;;;4.10;2.05;;;21.00;77.20;;;;;;4965427;28;20224;-69
2024/02/12 10:23:24;;;;;;;2.05;1.75;;;21.00;77.20;;;;;;4964419;28;20340;-69
2024/02/12 10:25:52;;;;;;;1.70;1.60;;;21.10;77.30;;;;;;4963440;28;20208;-69
2024/02/12 10:28:21;;;;;;;2.53;2.20;;;21.40;77.60;;;;;;4963616;28;20195;-69
2024/02/12 10:30:48;;;;;;;4.38;2.10;;;21.40;77.60;;;;;;4959912;28;20735;-69
2024/02/12 10:33:16;;;;;;;1.60;1.48;;;21.00;77.00;;;;;;4961059;28;20201;-69
2024/02/12 10:35:46;;;;;;;1.70;1.50;;;21.00;77.00;;;;;;4965269;28;20566;-69
2024/02/12 10:38:18;;;;;;;2.88;1.50;;;21.00;76.80;;;;;;4959714;28;20228;-69
2024/02/12 10:41:01;;;;;;;4.00;1.95;;;21.10;77.00;;;;;;4966691;28;20231;-70
2024/02/12 10:43:33;;;;;;;2.10;1.70;;;21.10;76.90;;;;;;4964902;28;20194;-68
2024/02/12 10:46:01;;;;;;;2.10;1.90;;;21.00;76.70;;;;;;4964096;28;20303;-69
2024/02/12 10:48:31;;;;;;;2.78;2.00;;;21.00;76.60;;;;;;4959795;28;21187;-68
2024/02/12 10:50:59;;;;;;;1.80;1.40;;;21.00;76.60;;;;;;4961647;28;20718;-69
2024/02/12 10:53:28;;;;;;;2.05;1.52;;;21.00;76.50;;;;;;4964026;28;20661;-68
2024/02/12 10:55:58;;;;;;;3.33;1.70;;;21.00;76.50;;;;;;4966376;28;20276;-69
2024/02/12 10:58:30;;;;;;;3.67;1.85;;;21.00;76.30;;;;;;4955150;28;20232;-70
2024/02/12 11:00:57;;;;;;;3.13;1.40;;;20.90;76.30;;;;;;4969453;28;20716;-69
2024/02/12 11:03:32;;;;;;;1.43;1.20;;;21.10;76.50;;;;;;4963456;28;21079;-68
2024/02/12 11:06:10;;;;;;;4.43;2.05;;;21.00;76.40;;;;;;4969707;28;20503;-69
2024/02/12 11:08:39;;;;;;;1.88;1.73;;;21.10;76.40;;;;;;4966783;28;20564;-69
2024/02/12 11:11:19;;;;;;;2.67;1.80;;;21.00;76.30;;;;;;4964179;28;20201;-69
2024/02/12 11:13:58;;;;;;;3.97;2.25;;;21.10;76.40;;;;;;4965500;28;20311;-68
2024/02/12 11:16:30;;;;;;;1.55;1.45;;;21.30;76.50;;;;;;4966088;28;20201;-68
2024/02/12 11:18:58;;;;;;;1.73;1.20;;;20.80;76.00;;;;;;4961086;28;20889;-69
2024/02/12 11:21:35;;;;;;;1.50;1.20;;;21.20;76.40;;;;;;4966325;28;20810;-70
2024/02/12 11:24:09;;;;;;;1.83;1.15;;;21.10;76.30;;;;;;4967898;28;20677;-69
2024/02/12 11:26:49;;;;;;;2.10;1.55;;;21.00;76.20;;;;;;4965912;28;20202;-69
2024/02/12 11:29:18;;;;;;;1.85;1.50;;;20.90;76.10;;;;;;4964933;28;20206;-69
2024/02/12 11:31:48;;;;;;;1.80;1.48;;;21.00;76.20;;;;;;4966410;28;20225;-69
2024/02/12 11:34:16;;;;;;;2.60;1.75;;;20.90;76.00;;;;;;4965740;28;20590;-68
2024/02/12 11:36:45;;;;;;;1.60;1.40;;;21.10;76.20;;;;;;4966679;28;20298;-69
2024/02/12 11:39:12;;;;;;;4.30;1.90;;;21.10;76.20;;;;;;4965077;28;20203;-72
2024/02/12 11:41:41;;;;;;;2.13;1.92;;;21.10;76.60;;;;;;4965164;28;20223;-69
2024/02/12 11:44:10;;;;;;;2.95;1.92;;;21.00;75.70;;;;;;4968134;28;20343;-68
2024/02/12 11:46:38;;;;;;;3.93;1.97;;;21.10;75.30;;;;;;4959796;28;20206;-69
2024/02/12 11:49:13;;;;;;;3.17;1.60;;;21.00;75.40;;;;;;4956804;28;20534;-66
2024/02/12 11:51:40;;;;;;;1.55;1.45;;;21.10;76.00;;;;;;4960558;28;20204;-67
2024/02/12 11:54:13;;;;;;;1.40;1.23;;;21.10;76.30;;;;;;4961908;28;20220;-66
2024/02/12 11:56:49;;;;;;;2.30;1.70;;;21.10;76.50;;;;;;4964313;28;20717;-69
2024/02/12 11:59:19;;;;;;;2.47;1.70;;;21.10;76.70;;;;;;4958090;28;20206;-67
2024/02/12 12:01:49;;;;;;;12.35;1.88;;;21.10;76.80;;;;;;4965696;28;21514;-67
2024/02/12 12:04:18;;;;;;;2.70;1.60;;;21.10;76.90;;;;;;4959732;28;20543;-65
2024/02/12 12:06:59;;;;;;;4.60;1.57;;;21.20;77.10;;;;;;4969794;28;20580;-69
2024/02/12 12:09:28;;;;;;;1.57;1.30;;;21.20;77.30;;;;;;4958972;28;20460;-66
2024/02/12 12:12:01;;;;;;;2.00;1.60;;;21.30;77.60;;;;;;4952288;28;20471;-70
2024/02/12 12:14:38;;;;;;;1.90;1.48;;;21.30;77.60;;;;;;4950352;28;20200;-65
2024/02/12 12:17:06;;;;;;;2.10;1.40;;;21.30;77.80;;;;;;4953889;28;20240;-68
2024/02/12 12:19:35;;;;;;;2.03;1.77;;;21.20;77.90;;;;;;4962557;28;20466;-68
2024/02/12 12:22:02;;;;;;;2.50;1.98;;;21.30;78.10;;;;;;4962879;28;20520;-69
2024/02/12 12:24:33;;;;;;;2.80;1.70;;;21.40;78.30;;;;;;4955040;28;20268;-67
2024/02/12 12:27:02;;;;;;;1.43;1.13;;;21.40;78.30;;;;;;4956256;28;20491;-64
2024/02/12 12:29:29;;;;;;;3.05;1.50;;;21.40;78.40;;;;;;4957418;28;21280;-66
2024/02/12 12:32:05;;;;;;;2.03;1.40;;;21.70;78.90;;;;;;4964555;28;20264;-65
2024/02/12 12:34:34;;;;;;;1.63;1.20;;;21.40;79.30;;;;;;4970757;28;20463;-66
2024/02/12 12:37:02;;;;;;;1.80;1.60;;;21.70;82.10;;;;;;4964059;28;20468;-65
2024/02/12 12:39:34;;;;;;;1.60;1.40;;;21.50;81.20;;;;;;4964294;28;20471;-64
2024/02/12 12:42:05;;;;;;;1.53;1.27;;;21.50;81.40;;;;;;4960114;28;21057;-65
2024/02/12 12:44:35;;;;;;;1.57;1.47;;;21.60;81.80;;;;;;4963724;28;20575;-64
2024/02/12 12:47:04;;;;;;;1.63;1.40;;;22.00;81.90;;;;;;4968412;28;20449;-65
2024/02/12 12:49:33;;;;;;;3.60;1.30;;;21.80;81.70;;;;;;4952067;28;21940;-65
2024/02/12 12:52:02;;;;;;;1.60;1.30;;;21.60;80.90;;;;;;4970094;28;21103;-65
2024/02/12 12:54:29;;;;;;;2.53;1.40;;;21.60;80.30;;;;;;4969726;28;20460;-66
2024/02/12 12:57:00;;;;;;;1.50;1.40;;;21.60;80.20;;;;;;4971308;28;20483;-63
2024/02/12 12:59:38;;;;;;;1.50;1.33;;;21.90;80.90;;;;;;4968988;28;20463;-64
2024/02/12 13:02:08;;;;;;;1.63;1.23;;;21.60;81.10;;;;;;4972418;28;20493;-65
2024/02/12 13:04:39;;;;;;;2.13;1.70;;;21.90;81.30;;;;;;4968044;28;20464;-65
2024/02/12 13:07:08;;;;;;;2.67;1.20;;;21.80;81.00;;;;;;4966475;28;20448;-64
2024/02/12 13:09:47;;;;;;;1.87;1.40;;;22.10;81.60;;;;;;4967919;28;20474;-65
2024/02/12 13:12:16;;;;;;;1.50;1.23;;;21.80;80.70;;;;;;4961503;28;20463;-64
2024/02/12 13:14:45;;;;;;;1.30;1.20;;;21.80;80.10;;;;;;4964514;28;20472;-65
2024/02/12 13:17:13;;;;;;;1.60;1.40;;;21.60;79.50;;;;;;4965055;28;20660;-65